Timeline UpdatesTrip UpdatesNews PostsPvt PostsTravel TipsAdmin PostsConv PostsFollowed PostsChat RequestsBlog PostsPNR Posts

Disclaimer
Search
 
 
Fri Aug 1, 2014 05:11:18 ISTHomeTrainsΣChainsAtlasPNRForumGalleryNewsFAQTripsMembersLoginFeedback
No Recent News for this Train
Other Trains in the News **new
Latest...
.
Wed Nov 13, 2013 (07:25AM)
⇐ Return Journey: Train# 16687

16688/Navyug Express

Dec 10 2013 (10:22PM)
Change Departure Station:
Change Arrival Station:
Post a Train Travel TipPost a Train Travel Tip **new
Post a Comment/Question/Picture/VideoPost a Comment/Question/Picture/Video
Pantry/Catering
✓ Pantry Car Avbl
✓ Catering Avbl
Good Food
RSA - Rake Sharing
NO RSA
Rake/Coach Composition
ED- MAQ ENG-SLR-UR-UR-A1-B2-B1-S1-S2-S3-S4-S5-PC-SLR; Entry# 962626; ED TEN: [S6-S7-S8-S9-A2-UR-SLR ]; JAT - ED- ENG-SLR-UR-UR-A1-B2-B1-S1-S2-S3-S4-S5-PC-SLR- [S6-S7-S8-S9-A2-UR-SLR ]
Loco
JAT-NDLS WDM 3A TKD-SHED WAP-4 (NDLS 2 SRR) ERS WDM 3A SRR-MAQ
News    PNR    Forum    Time-Table    Availability    Fare Chart    Map    Arr/Dep History    Trips    Gallery    ΣChains    X/O    Timeline    
Travel Time: 3h 7m    6 halts    Distance: 170 km    Avg Speed: 54 km/hr
Type: Mail/Express
Zone: SR/Southern
Departs @ 23:45 (Avg 1h 28m late)
Platform# 2
    T  
Jammu Tawi/JAT 
Arrives @ 02:52 +1 night (Avg 1h 45m late)
Platform# 2
     F 
Tanda Urmar/TDO 

6 halts. 29 intermediate Stations between Jammu Tawi and Tanda Urmar

Show ALL intermediate Stations  Show Old Time-Table

#CodeStation NameX/OArrivesAvgDepartsAvgHaltPFDay#KmSpeedElevZoneAddress
1JAT»Jammu Tawi (3)»  -23:45+1:28210.065337mNRJammu 180002, Jammu and Kashmir
2SMBXSamba (2)  00:15+1:3600:17+1:362m1232.764365mNRDist. Samba, Jammu and Kashmir
3KTHUKathua (2)  00:58+1:4201:00+1:432m2276.349396mNRdistt. kathua, Jammu and Kashmir
4MDPBMadhopur Punjab (2)  01:10+1:4401:12+1:442m1284.456357mNRMadhopur, Punjab
5PTKCPathankot Cantt (3)  01:28+1:5401:33+1:515m1299.457328mNRPathankot By Pass Ph:0186-2251594, Punjab
6MEXMukerian (3)  02:15+1:4602:17+1:462m12139.353257mNRMukerian distt. hosiharpur, Punjab
7DZADasuya (2)X  02:34+1:4602:36+1:462m22154.358251mNRDasuya distt. hoshiarpur, Punjab
8TDO•Tanda Urmar (3)•  02:52+1:4502:54+1:442m22169.762239mNRUrmar Tanda, Punjab
9JRCJalandhar Cantt. Junction (3)X  03:35+1:3803:40+1:405m32211.954239mNRNear Rama Mandi, Punjab
10PGWPhagwara Junction (3)  03:58+1:3704:00+1:372m12228.275245mNRPhagwara, Punjab
11PHRPhillaur Junction (3)X  04:18+1:3804:20+1:382m12250.820246mNRPhillaur, Punjab
12LDHLudhiana Junction (7)X  05:00+1:1605:15+1:1515m52263.963246mNRLudhiana 141001, Punjab
13QRPKila Raipur (1)  05:32+1:3605:34+1:372m12281.651262mNRDelhon Pakhowal Rd, Punjab
14AHHAhmadgarh (1)  05:43+1:3805:45+1:392m12289.343256mNRAhmedgarh, Punjab
15METMalerkotla (2)  06:13+1:3406:15+1:382m12309.150248mNRMalerkotla., Punjab
16DUIDhuri Junction (4)X  06:35+1:4407:00+1:2925m--2326.064248mNRDhuri, Punjab
17SAGSangrur (2)X  07:15+1:3407:17+1:352m12342.035239mNRSangrur, Punjab
18SFMSunam (1)  07:39+1:2507:41+1:292m12354.871235mNRSunam, Punjab
19LHALehra Gaga (1)  07:59+1:3008:01+1:312m12376.119227mNRSangrur, Punjab
20JHLJakhal Junction  08:55+1:0609:00+1:085m--2393.067225mNRJakhal, Haryana
21TUNTohana (2)  09:11+1:1309:13+1:132m--2405.261232mNRTohana, Haryana
22NRWNarwana Junction (4)  09:38+1:1009:40+1:102m--2430.765235mNRWay to Narwana, Haryana
23UCAUchana  09:54+1:3609:56+1:362m--2445.958225mNRDistrict Jind, Haryana
24BZOBarsola  10:06+1:0910:08+1:112m--2455.534224mNRDistrict Jind, Haryana
25JINDJind Junction (3)X  10:24+1:0510:27+1:093m--2464.667222mNR126102., Haryana
26JNAJulana  10:50+1:1410:52+1:282m--2490.336226mNRJulana, Haryana
27ROKRohtak Junction (3)  11:45+1:1211:47+1:122m--2521.776220mNRRohtak, Haryana
28BGZBahadurgarh  12:19+1:1012:21+1:102m--2562.034220mNRBahadurgarh, Haryana
29SSBShakur Basti  12:56+1:0012:58+1:032m--2581.918216mNRPitampura, Delhi NCT
30NDLSNew Delhi (16)X13:35+1:2114:30+1:1355m92592.829215mNRNew Delhi, Delhi NCT
31NZMDelhi Hazrat Nizamuddin (7)  14:45+1:3514:55+1:3410m42600.229209mNRNizamuddin East/Sarai KaleKhan Bus Terminal, Delhi NCT
32FDBFaridabad (4)X  15:38+2:0915:40+2:082m32620.949206mNRold Faridabad, Haryana
33AGCAgra Cantt. (6)  19:05+4519:10+475m12787.890174mNCRAgra, Uttar Pradesh
34DHODholpur Junction (3)X  19:45+1:0819:47+1:102m22840.462177mNCRDholpur, Rajasthan
35GWLGwalior Junction (4)  20:50+1:1920:55+1:195m12905.862214mNCRGwalior, Madhya Pradesh
36JHSJhansi Junction (7)X  22:30+1:2322:40+1:2910m--21003.569259mNCRJhansi, Uttar Pradesh
37BPLBhopal Junction (6)X  02:55+1:1303:00+1:145m131295.338497mWCRBhopal, Madhya Pradesh
38ETItarsi Junction (7)X  05:25+3805:30+445m--31387.058329mWCRItarsi 461111, Madhya Pradesh
39NGPNagpur Junction (8)  10:35+4910:45+5210m231684.274314mCRNagpur 440001, Maharashtra
40SEGMSewagram Junction (5)  11:47+1:0111:49+1:012m--31760.466279mCRWardha, Maharashtra
41CDChandrapur Maharashtra (3)  13:36+5313:38+532m131879.016194mCRChandrapur 442401, Maharashtra
42BPQBalharshah Junction (5)  14:30+2714:40+3410m331892.774188mCRBallarpur. Ph : 07172 - 240341, Maharashtra
43RDMRamagundam (3)  16:35+5016:37+502m232034.550170mSCRKarimnagar Dist. Ph : 08728 - 255237, Telangana
44WLWarangal (3)X  18:38+4118:43+405m132135.767271mSCRWarangal., Telangana
45KMTKhammam (2)X  20:19+4620:20+501m132243.331118mSCRKhammam 507001, Telangana
46BZAVijayawada Junction (10)X  23:35+1523:45+1910m732343.67524mSCRVijayawada 520001, Andhra Pradesh
47TELTenali Junction (5)X  00:10+3300:12+332m242374.96916mSCRTel: 08644-227834, Andhra Pradesh
48OGLOngole (3)  01:45+3601:47+362m342481.97712mSCROngole, Andhra Pradesh
49NLRNellore (4)  03:18+2303:20+232m342598.73421mSCRNellore, Andhra Pradesh
50GDRGudur Junction (3)  04:28+1404:30+142m142637.17119mSCRGudur, Andhra Pradesh
51RURenigunta Junction (5)X  05:40+3505:50+3810m242720.540113mSCRChittoor District, Andhra Pradesh
52TPTYTirupati Main (5)  06:05+5106:10+525m242730.455150mSCRChittoor Distt, Andhra Pradesh
53CTOChittoor (3)  07:28+4307:30+442m--42802.323305mSCR517001., Andhra Pradesh
54KPDKatpadi Junction (5)X  08:55+908:57+112m342835.471213mSRVellore 632007, Tamil Nadu
55JTJJolarpettai Junction (5)X  10:08+1110:10+122m--42919.280405mSRJolarpettai, Tamil Nadu
56SASalem Junction (6)  11:40+2211:45+215m--43039.453283mSRSalem, Tamil Nadu
57EDErode Junction (4)12:55+1113:20+2025m343101.170175mSRErode ph.no: 0424-2256111, Tamil Nadu
58TUPTiruppur (2)X  14:03+1614:05+162m143151.155305mSRTiruppur. Ph:0421-2200450, Tamil Nadu
59CBECoimbatore Main Junction (6)X  15:00+1515:05+145m143201.745416mSRCoimbatore 641001, Tamil Nadu
60PGTPalakkad Junction (4)X  16:20+216:25+35m143257.45384mSRPalghat Tel: 0491 2555231, Kerala
61SRRShoranur Junction (7)17:15+917:25+1710m243301.76526mSRShoranur ph.no 0466-2222913, Kerala
62CLTKozhikode Main (4)X  18:45+818:50+85m443388.07911mSRCalicut Tel: 0495 2701234, Kerala
63TLYThalassery (2)  19:42+3019:45+293m--43456.4509mSRKannur, Kerala
64CANKannur Main (3)XO  20:10+1320:15+135m143477.17114mSRKannur Tel: 0497 2705555, Kerala
65KGQKasaragod (3)  21:28+1421:30+142m243563.13718mSRTel: 04994 220800, Kerala
66MAQMangalore Central (4)  22:45+0-243608.9-14mSRMangalore 575001, Karnataka
Scroll to Top
Scroll to Bottom